createdAt,value
2022-11-19T00:00:51.904Z,98405.00
2022-11-19T00:02:26.535Z,98419.00
2022-11-19T00:03:59.826Z,98416.00
2022-11-19T00:05:32.957Z,98417.00
2022-11-19T00:07:06.207Z,98413.00
2022-11-19T00:08:39.839Z,98419.00
2022-11-19T00:10:13.009Z,98415.00
2022-11-19T00:12:03.717Z,98425.00
2022-11-19T00:13:37.396Z,98426.00
2022-11-19T00:15:09.847Z,98423.00
2022-11-19T00:16:45.313Z,98425.00
2022-11-19T00:18:20.095Z,98420.00
2022-11-19T00:19:53.233Z,98434.00
2022-11-19T00:21:26.389Z,98431.00
2022-11-19T00:23:00.373Z,98434.00
2022-11-19T00:24:33.805Z,98433.00
2022-11-19T00:26:10.505Z,98436.00
2022-11-19T00:27:43.690Z,98437.00
2022-11-19T00:29:18.259Z,98432.00
2022-11-19T00:30:51.551Z,98432.00
2022-11-19T00:32:24.829Z,98437.00
2022-11-19T00:33:59.373Z,98437.00
2022-11-19T00:35:33.344Z,98440.00
2022-11-19T00:37:06.570Z,98438.00
2022-11-19T00:38:40.137Z,98438.00
2022-11-19T00:40:14.270Z,98439.00
2022-11-19T00:41:47.712Z,98431.00
2022-11-19T00:43:39.087Z,98435.00
2022-11-19T00:45:12.255Z,98440.00
2022-11-19T00:46:45.646Z,98442.00
2022-11-19T00:48:17.845Z,98440.00
2022-11-19T00:49:52.594Z,98436.00
2022-11-19T00:51:29.004Z,98437.00
2022-11-19T00:53:01.363Z,98437.00
2022-11-19T00:54:34.581Z,98444.00
2022-11-19T00:56:11.608Z,98436.00
2022-11-19T00:57:43.867Z,98438.00
2022-11-19T00:59:17.636Z,98426.00
2022-11-19T01:00:51.452Z,98445.00
2022-11-19T01:02:24.680Z,98444.00
2022-11-19T01:03:58.137Z,98445.00
2022-11-19T01:05:33.060Z,98450.00
2022-11-19T01:07:06.278Z,98452.00
2022-11-19T01:08:38.500Z,98444.00
2022-11-19T01:10:11.803Z,98451.00
2022-11-19T01:11:45.492Z,98446.00
2022-11-19T01:13:36.319Z,98446.00
2022-11-19T01:15:10.918Z,98446.00
2022-11-19T01:16:44.117Z,98452.00
2022-11-19T01:18:17.293Z,98457.00
2022-11-19T01:19:50.533Z,98460.00
2022-11-19T01:21:28.637Z,98464.00
2022-11-19T01:23:00.866Z,98465.00
2022-11-19T01:24:34.518Z,98459.00
2022-11-19T01:26:07.920Z,98466.00
2022-11-19T01:27:40.409Z,98472.00
2022-11-19T01:29:13.645Z,98468.00
2022-11-19T01:30:45.893Z,98460.00
2022-11-19T01:32:18.980Z,98462.00
2022-11-19T01:33:52.625Z,98462.00
2022-11-19T01:35:26.038Z,98458.00
2022-11-19T01:37:00.752Z,98458.00
2022-11-19T01:38:34.029Z,98461.00
2022-11-19T01:40:09.184Z,98471.00
2022-11-19T01:41:42.356Z,98471.00
2022-11-19T01:43:14.594Z,98478.00
2022-11-19T01:45:03.095Z,98472.00
2022-11-19T01:46:39.659Z,98469.00
2022-11-19T01:48:19.210Z,98470.00
2022-11-19T01:49:52.710Z,98473.00
2022-11-19T01:51:31.939Z,98481.00
2022-11-19T01:53:09.284Z,98475.00
2022-11-19T01:54:50.305Z,98472.00
2022-11-19T01:56:24.626Z,98473.00
2022-11-19T01:58:02.364Z,98474.00
2022-11-19T01:59:36.310Z,98477.00
2022-11-19T02:01:11.927Z,98478.00
2022-11-19T02:02:44.419Z,98478.00
2022-11-19T02:04:20.092Z,98476.00
2022-11-19T02:05:53.451Z,98475.00
2022-11-19T02:07:29.381Z,98483.00
2022-11-19T02:09:04.332Z,98478.00
2022-11-19T02:10:53.254Z,98491.00
2022-11-19T02:12:43.874Z,98492.00
2022-11-19T02:14:42.916Z,98490.00
2022-11-19T02:16:25.627Z,98495.00
2022-11-19T02:18:17.266Z,98507.00
2022-11-19T02:20:30.102Z,98500.00
2022-11-19T02:22:23.796Z,98501.00
2022-11-19T02:24:36.206Z,98510.00
2022-11-19T02:26:57.454Z,98505.00
2022-11-19T02:28:36.901Z,98496.00
2022-11-19T02:30:13.062Z,98508.00
2022-11-19T02:31:58.067Z,98500.00
2022-11-19T02:33:41.881Z,98505.00
2022-11-19T02:35:24.951Z,98520.00
2022-11-19T02:37:06.491Z,98515.00
2022-11-19T02:38:48.886Z,98514.00
2022-11-19T02:40:26.126Z,98505.00
2022-11-19T02:42:09.045Z,98504.00
2022-11-19T02:43:44.843Z,98512.00
2022-11-19T02:45:28.666Z,98511.00
2022-11-19T02:47:06.214Z,98509.00
2022-11-19T02:48:44.364Z,98507.00
2022-11-19T02:50:21.517Z,98510.00
2022-11-19T02:51:56.003Z,98505.00
2022-11-19T02:53:29.396Z,98512.00
2022-11-19T02:55:01.871Z,98508.00
2022-11-19T02:56:52.759Z,98512.00
2022-11-19T02:58:40.314Z,98516.00
2022-11-19T03:00:32.774Z,98518.00
2022-11-19T03:02:27.594Z,98522.00
2022-11-19T03:04:18.792Z,98520.00
2022-11-19T03:06:00.036Z,98510.00
2022-11-19T03:07:33.589Z,98519.00
2022-11-19T03:09:06.898Z,98516.00
2022-11-19T03:10:49.305Z,98507.00
2022-11-19T03:12:34.314Z,98518.00
2022-11-19T03:14:32.630Z,98512.00
2022-11-19T03:16:33.524Z,98508.00
2022-11-19T03:18:13.694Z,98515.00
2022-11-19T03:19:52.214Z,98516.00
2022-11-19T03:21:34.689Z,98510.00
2022-11-19T03:23:16.812Z,98509.00
2022-11-19T03:24:59.928Z,98508.00
2022-11-19T03:26:39.713Z,98512.00
2022-11-19T03:28:20.810Z,98513.00
2022-11-19T03:30:00.345Z,98514.00
2022-11-19T03:31:35.989Z,98514.00
2022-11-19T03:33:19.591Z,98514.00
2022-11-19T03:34:59.597Z,98510.00
2022-11-19T03:36:38.942Z,98516.00
2022-11-19T03:38:18.534Z,98518.00
2022-11-19T03:39:56.700Z,98511.00
2022-11-19T03:41:32.597Z,98507.00
2022-11-19T03:43:10.494Z,98511.00
2022-11-19T03:44:50.111Z,98526.00
2022-11-19T03:46:27.933Z,98518.00
2022-11-19T03:48:03.491Z,98522.00
2022-11-19T03:49:44.012Z,98516.00
2022-11-19T03:51:22.999Z,98512.00
2022-11-19T03:53:01.344Z,98517.00
2022-11-19T03:54:38.825Z,98515.00
2022-11-19T03:56:17.845Z,98526.00
2022-11-19T03:57:52.237Z,98521.00
2022-11-19T03:59:29.671Z,98521.00
2022-11-19T04:01:03.432Z,98525.00
2022-11-19T04:02:37.091Z,98525.00
2022-11-19T04:04:27.930Z,98520.00
2022-11-19T04:06:02.506Z,98528.00
2022-11-19T04:07:35.775Z,98539.00
2022-11-19T04:09:08.312Z,98536.00
2022-11-19T04:10:41.679Z,98542.00
2022-11-19T04:12:19.379Z,98543.00
2022-11-19T04:13:52.521Z,98544.00
2022-11-19T04:15:26.322Z,98531.00
2022-11-19T04:16:59.507Z,98550.00
2022-11-19T04:18:32.769Z,98543.00
2022-11-19T04:20:08.734Z,98550.00
2022-11-19T04:21:42.444Z,98546.00
2022-11-19T04:23:15.851Z,98557.00
2022-11-19T04:24:49.125Z,98552.00
2022-11-19T04:26:21.279Z,98555.00
2022-11-19T04:27:54.487Z,98553.00
2022-11-19T04:29:27.974Z,98558.00
2022-11-19T04:31:00.140Z,98559.00
2022-11-19T04:32:33.228Z,98564.00
2022-11-19T04:34:05.769Z,98561.00
2022-11-19T04:35:39.261Z,98570.00
2022-11-19T04:37:13.869Z,98567.00
2022-11-19T04:38:47.028Z,98572.00
2022-11-19T04:40:20.219Z,98573.00
2022-11-19T04:41:53.394Z,98581.00
2022-11-19T04:43:26.729Z,98574.00
2022-11-19T04:45:00.147Z,98579.00
2022-11-19T04:46:32.619Z,98580.00
2022-11-19T04:48:06.656Z,98584.00
2022-11-19T04:49:40.141Z,98582.00
2022-11-19T04:51:13.334Z,98578.00
2022-11-19T04:52:47.925Z,98583.00
2022-11-19T04:54:21.352Z,98582.00
2022-11-19T04:55:53.697Z,98587.00
2022-11-19T04:57:27.431Z,98586.00
2022-11-19T04:59:00.929Z,98588.00
2022-11-19T05:00:33.412Z,98584.00
2022-11-19T05:02:06.757Z,98575.00
2022-11-19T05:03:40.249Z,98577.00
2022-11-19T05:05:12.721Z,98578.00
2022-11-19T05:06:45.894Z,98590.00
2022-11-19T05:08:19.720Z,98592.00
2022-11-19T05:09:52.932Z,98597.00
2022-11-19T05:11:26.132Z,98594.00
2022-11-19T05:12:59.556Z,98595.00
2022-11-19T05:14:32.812Z,98593.00
2022-11-19T05:16:07.019Z,98598.00
2022-11-19T05:17:39.381Z,98594.00
2022-11-19T05:19:12.601Z,98596.00
2022-11-19T05:20:45.753Z,98602.00
2022-11-19T05:22:18.915Z,98603.00
2022-11-19T05:23:53.430Z,98597.00
2022-11-19T05:25:26.545Z,98600.00
2022-11-19T05:26:59.785Z,98600.00
2022-11-19T05:28:39.121Z,98606.00
2022-11-19T05:30:14.214Z,98604.00
2022-11-19T05:31:47.435Z,98597.00
2022-11-19T05:33:20.694Z,98605.00
2022-11-19T05:34:54.189Z,98613.00
2022-11-19T05:36:27.502Z,98608.00
2022-11-19T05:38:00.072Z,98607.00
2022-11-19T05:39:35.267Z,98608.00
2022-11-19T05:41:08.447Z,98613.00
2022-11-19T05:42:41.653Z,98610.00
2022-11-19T05:44:14.971Z,98605.00
2022-11-19T05:45:48.306Z,98603.00
2022-11-19T05:47:21.505Z,98612.00
2022-11-19T05:48:55.184Z,98607.00
2022-11-19T05:50:28.758Z,98612.00
2022-11-19T05:52:03.800Z,98615.00
2022-11-19T05:53:37.108Z,98601.00
2022-11-19T05:55:11.854Z,98605.00
2022-11-19T05:56:45.275Z,98618.00
2022-11-19T05:58:18.488Z,98615.00
2022-11-19T05:59:50.628Z,98606.00
2022-11-19T06:01:26.977Z,98608.00
2022-11-19T06:03:00.190Z,98617.00
2022-11-19T06:04:32.802Z,98617.00
2022-11-19T06:06:06.565Z,98618.00
2022-11-19T06:07:40.355Z,98616.00
2022-11-19T06:09:13.607Z,98618.00
2022-11-19T06:10:48.147Z,98622.00
2022-11-19T06:12:21.422Z,98622.00
2022-11-19T06:13:54.626Z,98623.00
2022-11-19T06:15:27.889Z,98630.00
2022-11-19T06:17:00.918Z,98630.00
2022-11-19T06:18:34.067Z,98639.00
2022-11-19T06:20:11.353Z,98635.00
2022-11-19T06:21:44.396Z,98643.00
2022-11-19T06:23:17.693Z,98648.00
2022-11-19T06:24:49.881Z,98652.00
2022-11-19T06:26:26.984Z,98648.00
2022-11-19T06:28:00.217Z,98644.00
2022-11-19T06:29:33.566Z,98646.00
2022-11-19T06:31:07.289Z,98652.00
2022-11-19T06:32:40.838Z,98650.00
2022-11-19T06:34:14.565Z,98649.00
2022-11-19T06:35:50.233Z,98651.00
2022-11-19T06:37:24.529Z,98653.00
2022-11-19T06:38:57.909Z,98658.00
2022-11-19T06:40:31.221Z,98666.00
2022-11-19T06:42:23.858Z,98663.00
2022-11-19T06:43:57.136Z,98661.00
2022-11-19T06:45:30.577Z,98667.00
2022-11-19T06:47:02.846Z,98682.00
2022-11-19T06:48:36.197Z,98673.00
2022-11-19T06:50:11.785Z,98674.00
2022-11-19T06:51:45.030Z,98672.00
2022-11-19T06:53:18.428Z,98678.00
2022-11-19T06:54:51.812Z,98673.00
2022-11-19T06:56:25.233Z,98678.00
2022-11-19T06:58:03.336Z,98679.00
2022-11-19T06:59:38.798Z,98681.00
2022-11-19T07:01:11.088Z,98693.00
2022-11-19T07:02:44.521Z,98696.00
2022-11-19T07:04:17.609Z,98694.00
2022-11-19T07:05:51.787Z,98695.00
2022-11-19T07:07:25.144Z,98697.00
2022-11-19T07:08:59.374Z,98695.00
2022-11-19T07:10:34.458Z,98699.00
2022-11-19T07:12:09.203Z,98701.00
2022-11-19T07:14:00.613Z,98703.00
2022-11-19T07:15:33.895Z,98712.00
2022-11-19T07:17:07.079Z,98710.00
2022-11-19T07:18:40.397Z,98712.00
2022-11-19T07:20:14.273Z,98721.00
2022-11-19T07:21:47.611Z,98715.00
2022-11-19T07:23:20.745Z,98717.00
2022-11-19T07:24:53.949Z,98717.00
2022-11-19T07:26:27.176Z,98708.00
2022-11-19T07:28:00.302Z,98712.00
2022-11-19T07:29:34.841Z,98715.00
2022-11-19T07:31:08.785Z,98723.00
2022-11-19T07:32:42.997Z,98719.00
2022-11-19T07:34:16.132Z,98721.00
2022-11-19T07:35:49.376Z,98730.00
2022-11-19T07:37:22.664Z,98727.00
2022-11-19T07:38:56.168Z,98727.00
2022-11-19T07:40:29.349Z,98726.00
2022-11-19T07:42:20.174Z,98738.00
2022-11-19T07:43:57.677Z,98730.00
2022-11-19T07:45:37.079Z,98737.00
2022-11-19T07:47:10.536Z,98738.00
2022-11-19T07:48:43.729Z,98733.00
2022-11-19T07:50:17.531Z,98737.00
2022-11-19T07:51:50.799Z,98740.00
2022-11-19T07:53:24.108Z,98731.00
2022-11-19T07:54:57.226Z,98743.00
2022-11-19T07:56:30.639Z,98739.00
2022-11-19T07:58:04.014Z,98748.00
2022-11-19T07:59:37.257Z,98747.00
2022-11-19T08:01:14.386Z,98751.00
2022-11-19T08:02:47.711Z,98752.00
2022-11-19T08:04:20.959Z,98756.00
2022-11-19T08:05:53.168Z,98755.00
2022-11-19T08:07:26.395Z,98750.00
2022-11-19T08:08:59.708Z,98750.00
2022-11-19T08:10:33.158Z,98752.00
2022-11-19T08:12:07.235Z,98752.00
2022-11-19T08:13:41.508Z,98759.00
2022-11-19T08:15:14.945Z,98748.00
2022-11-19T08:17:08.054Z,98738.00
2022-11-19T08:18:41.203Z,98741.00
2022-11-19T08:20:14.866Z,98746.00
2022-11-19T08:21:48.806Z,98754.00
2022-11-19T08:23:23.069Z,98755.00
2022-11-19T08:24:56.610Z,98759.00
2022-11-19T08:26:30.249Z,98752.00
2022-11-19T08:28:05.394Z,98752.00
2022-11-19T08:29:38.538Z,98748.00
2022-11-19T08:31:12.113Z,98757.00
2022-11-19T08:32:46.645Z,98754.00
2022-11-19T08:34:20.073Z,98765.00
2022-11-19T08:35:57.033Z,98768.00
2022-11-19T08:37:30.888Z,98768.00
2022-11-19T08:39:04.528Z,98775.00
2022-11-19T08:40:38.202Z,98778.00
2022-11-19T08:42:29.147Z,98776.00
2022-11-19T08:44:01.946Z,98776.00
2022-11-19T08:45:37.886Z,98770.00
2022-11-19T08:47:11.143Z,98783.00
2022-11-19T08:48:45.990Z,98781.00
2022-11-19T08:50:19.325Z,98784.00
2022-11-19T08:51:52.654Z,98785.00
2022-11-19T08:53:25.983Z,98783.00
2022-11-19T08:54:59.135Z,98796.00
2022-11-19T08:56:33.632Z,98793.00
2022-11-19T08:58:08.786Z,98805.00
2022-11-19T08:59:42.073Z,98802.00
2022-11-19T09:01:18.352Z,98809.00
2022-11-19T09:02:51.725Z,98804.00
2022-11-19T09:04:26.333Z,98805.00
2022-11-19T09:06:00.630Z,98815.00
2022-11-19T09:07:33.848Z,98805.00
2022-11-19T09:09:07.098Z,98817.00
2022-11-19T09:10:41.040Z,98814.00
2022-11-19T09:12:14.272Z,98817.00
2022-11-19T09:13:47.732Z,98822.00
2022-11-19T09:15:21.998Z,98821.00
2022-11-19T09:16:55.184Z,98822.00
2022-11-19T09:18:29.023Z,98826.00
2022-11-19T09:20:03.831Z,98822.00
2022-11-19T09:21:37.082Z,98826.00
2022-11-19T09:23:10.494Z,98823.00
2022-11-19T09:24:43.596Z,98826.00
2022-11-19T09:26:19.524Z,98826.00
2022-11-19T09:27:52.801Z,98828.00
2022-11-19T09:29:25.962Z,98830.00
2022-11-19T09:31:01.490Z,98828.00
2022-11-19T09:32:35.513Z,98841.00
2022-11-19T09:34:09.002Z,98836.00
2022-11-19T09:35:43.502Z,98835.00
2022-11-19T09:37:16.998Z,98839.00
2022-11-19T09:38:50.567Z,98841.00
2022-11-19T09:40:24.228Z,98837.00
2022-11-19T09:42:07.524Z,98842.00
2022-11-19T09:43:51.969Z,98845.00
2022-11-19T09:45:43.540Z,98855.00
2022-11-19T09:47:31.542Z,98839.00
2022-11-19T09:49:14.799Z,98852.00
2022-11-19T09:50:58.104Z,98848.00
2022-11-19T09:52:36.449Z,98853.00
2022-11-19T09:54:16.866Z,98853.00
2022-11-19T09:55:53.151Z,98859.00
2022-11-19T09:57:36.146Z,98868.00
2022-11-19T09:59:21.678Z,98861.00
2022-11-19T10:00:55.397Z,98859.00
2022-11-19T10:02:30.537Z,98856.00
2022-11-19T10:04:05.838Z,98864.00
2022-11-19T10:06:06.789Z,98864.00
2022-11-19T10:07:48.995Z,98864.00
2022-11-19T10:09:43.244Z,98867.00
2022-11-19T10:11:36.441Z,98871.00
2022-11-19T10:13:44.911Z,98872.00
2022-11-19T10:15:25.653Z,98867.00
2022-11-19T10:17:08.180Z,98865.00
2022-11-19T10:18:56.431Z,98871.00
2022-11-19T10:20:54.951Z,98876.00
2022-11-19T10:22:40.195Z,98886.00
2022-11-19T10:24:18.194Z,98881.00
2022-11-19T10:26:04.165Z,98876.00
2022-11-19T10:27:47.220Z,98880.00
2022-11-19T10:29:24.437Z,98881.00
2022-11-19T10:31:15.669Z,98882.00
2022-11-19T10:32:59.241Z,98872.00
2022-11-19T10:34:37.979Z,98883.00
2022-11-19T10:36:19.263Z,98885.00
2022-11-19T10:38:01.451Z,98879.00
2022-11-19T10:39:42.842Z,98876.00
2022-11-19T10:41:24.459Z,98875.00
2022-11-19T10:43:09.682Z,98878.00
2022-11-19T10:44:50.454Z,98884.00
2022-11-19T10:46:29.439Z,98882.00
2022-11-19T10:48:10.524Z,98882.00
2022-11-19T10:49:45.254Z,98881.00
2022-11-19T10:51:29.282Z,98873.00
2022-11-19T10:53:14.667Z,98876.00
2022-11-19T10:54:50.018Z,98873.00
2022-11-19T10:56:31.403Z,98877.00
2022-11-19T10:58:14.648Z,98875.00
2022-11-19T10:59:52.280Z,98870.00
2022-11-19T11:01:31.243Z,98875.00
2022-11-19T11:03:07.669Z,98883.00
2022-11-19T11:05:06.827Z,98876.00
2022-11-19T11:06:55.614Z,98874.00
2022-11-19T11:08:31.073Z,98871.00
2022-11-19T11:10:38.307Z,98873.00
2022-11-19T11:12:37.113Z,98862.00
2022-11-19T11:14:30.069Z,98879.00
2022-11-19T11:16:11.080Z,98878.00
2022-11-19T11:17:47.493Z,98876.00
2022-11-19T11:19:23.148Z,98874.00
2022-11-19T11:20:57.663Z,98876.00
2022-11-19T11:22:31.498Z,98875.00
2022-11-19T11:24:08.002Z,98872.00
2022-11-19T11:25:42.173Z,98884.00
2022-11-19T11:27:25.943Z,98879.00
2022-11-19T11:29:04.450Z,98881.00
2022-11-19T11:30:38.024Z,98879.00
2022-11-19T11:32:30.711Z,98875.00
2022-11-19T11:34:06.751Z,98869.00
2022-11-19T11:35:46.600Z,98866.00
2022-11-19T11:37:20.362Z,98863.00
2022-11-19T11:38:57.268Z,98871.00
2022-11-19T11:40:32.723Z,98864.00
2022-11-19T11:42:15.941Z,98868.00
2022-11-19T11:44:05.725Z,98873.00
2022-11-19T11:45:39.523Z,98880.00
2022-11-19T11:47:17.499Z,98870.00
2022-11-19T11:48:50.823Z,98877.00
2022-11-19T11:50:28.825Z,98870.00
2022-11-19T11:52:31.500Z,98869.00
2022-11-19T11:54:17.716Z,98871.00
2022-11-19T11:55:58.885Z,98878.00
2022-11-19T11:57:34.529Z,98881.00
2022-11-19T11:59:26.066Z,98877.00
2022-11-19T12:01:15.920Z,98873.00
2022-11-19T12:03:03.557Z,98877.00
2022-11-19T12:04:37.166Z,98877.00
2022-11-19T12:06:17.536Z,98869.00
2022-11-19T12:08:07.597Z,98870.00
2022-11-19T12:09:54.414Z,98859.00
2022-11-19T12:11:50.465Z,98858.00
2022-11-19T12:13:50.232Z,98869.00
2022-11-19T12:15:36.754Z,98862.00
2022-11-19T12:17:19.529Z,98864.00
2022-11-19T12:19:11.650Z,98864.00
2022-11-19T12:21:00.222Z,98858.00
2022-11-19T12:22:49.803Z,98858.00
2022-11-19T12:24:47.014Z,98858.00
2022-11-19T12:26:33.745Z,98865.00
2022-11-19T12:28:29.238Z,98850.00
2022-11-19T12:30:10.478Z,98858.00
2022-11-19T12:32:08.465Z,98853.00
2022-11-19T12:33:58.149Z,98859.00
2022-11-19T12:35:52.889Z,98854.00
2022-11-19T12:37:44.400Z,98857.00
2022-11-19T12:39:34.904Z,98857.00
2022-11-19T12:41:55.687Z,98859.00
2022-11-19T12:43:56.449Z,98858.00
2022-11-19T12:45:41.937Z,98850.00
2022-11-19T12:47:40.758Z,98862.00
2022-11-19T12:49:47.518Z,98856.00
2022-11-19T12:51:39.562Z,98859.00
2022-11-19T12:53:43.770Z,98863.00
2022-11-19T12:55:26.986Z,98862.00
2022-11-19T12:57:21.944Z,98858.00
2022-11-19T12:59:13.753Z,98862.00
2022-11-19T13:00:57.857Z,98859.00
2022-11-19T13:02:38.629Z,98861.00
2022-11-19T13:04:18.335Z,98858.00
2022-11-19T13:05:56.453Z,98862.00
2022-11-19T13:07:38.489Z,98861.00
2022-11-19T13:09:20.829Z,98858.00
2022-11-19T13:11:06.135Z,98865.00
2022-11-19T13:12:46.927Z,98862.00
2022-11-19T13:14:33.155Z,98864.00
2022-11-19T13:16:12.228Z,98860.00
2022-11-19T13:17:52.392Z,98866.00
2022-11-19T13:19:32.609Z,98863.00
2022-11-19T13:21:16.534Z,98862.00
2022-11-19T13:22:54.249Z,98871.00
2022-11-19T13:24:34.648Z,98859.00
2022-11-19T13:26:13.905Z,98858.00
2022-11-19T13:27:50.657Z,98861.00
2022-11-19T13:29:37.360Z,98852.00
2022-11-19T13:31:24.138Z,98860.00
2022-11-19T13:33:12.005Z,98855.00
2022-11-19T13:35:12.089Z,98863.00
2022-11-19T13:36:58.774Z,98853.00
2022-11-19T13:38:44.824Z,98859.00
2022-11-19T13:40:25.852Z,98871.00
2022-11-19T13:42:20.136Z,98870.00
2022-11-19T13:44:14.602Z,98873.00
2022-11-19T13:46:03.681Z,98866.00
2022-11-19T13:47:49.887Z,98864.00
2022-11-19T13:49:34.057Z,98861.00
2022-11-19T13:51:19.215Z,98854.00
2022-11-19T13:53:02.407Z,98860.00
2022-11-19T13:54:39.469Z,98866.00
2022-11-19T13:56:17.432Z,98862.00
2022-11-19T13:57:51.260Z,98856.00
2022-11-19T13:59:36.873Z,98859.00
2022-11-19T14:01:38.100Z,98863.00
2022-11-19T14:03:40.991Z,98862.00
2022-11-19T14:05:50.692Z,98870.00
2022-11-19T14:07:58.353Z,98874.00
2022-11-19T14:09:49.902Z,98872.00
2022-11-19T14:12:08.055Z,98867.00
2022-11-19T14:14:33.845Z,98870.00
2022-11-19T14:16:42.178Z,98874.00
2022-11-19T14:18:43.171Z,98865.00
2022-11-19T14:20:54.241Z,98871.00
2022-11-19T14:23:00.789Z,98885.00
2022-11-19T14:25:14.685Z,98884.00
2022-11-19T14:27:19.785Z,98880.00
2022-11-19T14:28:54.168Z,98876.00
2022-11-19T14:31:02.968Z,98877.00
2022-11-19T14:32:47.233Z,98887.00
2022-11-19T14:34:28.213Z,98895.00
2022-11-19T14:36:10.493Z,98891.00
2022-11-19T14:37:47.009Z,98896.00
2022-11-19T14:39:26.997Z,98894.00
2022-11-19T14:41:19.204Z,98889.00
2022-11-19T14:43:49.766Z,98892.00
2022-11-19T14:45:23.361Z,98890.00
2022-11-19T14:46:56.537Z,98884.00
2022-11-19T14:48:34.649Z,98895.00
2022-11-19T14:50:11.592Z,98886.00
2022-11-19T14:51:51.683Z,98894.00
2022-11-19T14:53:26.068Z,98898.00
2022-11-19T14:55:04.446Z,98891.00
2022-11-19T14:56:38.186Z,98901.00
2022-11-19T14:58:24.332Z,98903.00
2022-11-19T15:00:02.451Z,98899.00
2022-11-19T15:01:48.796Z,98900.00
2022-11-19T15:03:26.953Z,98893.00
2022-11-19T15:05:08.665Z,98898.00
2022-11-19T15:06:45.096Z,98888.00
2022-11-19T15:08:48.569Z,98894.00
2022-11-19T15:10:48.152Z,98892.00
2022-11-19T15:12:22.648Z,98907.00
2022-11-19T15:15:01.357Z,98902.00
2022-11-19T15:16:36.796Z,98894.00
2022-11-19T15:18:35.863Z,98902.00
2022-11-19T15:20:29.732Z,98899.00
2022-11-19T15:22:36.837Z,98895.00
2022-11-19T15:24:28.652Z,98900.00
2022-11-19T15:26:18.591Z,98896.00
2022-11-19T15:28:14.373Z,98896.00
2022-11-19T15:30:13.564Z,98909.00
2022-11-19T15:32:18.497Z,98913.00
2022-11-19T15:34:26.094Z,98911.00
2022-11-19T15:36:30.645Z,98911.00
2022-11-19T15:38:15.443Z,98906.00
2022-11-19T15:39:57.143Z,98900.00
2022-11-19T15:41:37.625Z,98905.00
2022-11-19T15:43:23.449Z,98908.00
2022-11-19T15:45:03.891Z,98921.00
2022-11-19T15:46:47.266Z,98905.00
2022-11-19T15:48:32.754Z,98913.00
2022-11-19T15:50:12.236Z,98909.00
2022-11-19T15:52:03.671Z,98905.00
2022-11-19T15:53:36.922Z,98906.00
2022-11-19T15:55:19.934Z,98904.00
2022-11-19T15:56:53.537Z,98902.00
2022-11-19T15:58:33.608Z,98914.00
2022-11-19T16:00:15.899Z,98920.00
2022-11-19T16:02:01.020Z,98916.00
2022-11-19T16:03:37.778Z,98912.00
2022-11-19T16:05:22.916Z,98907.00
2022-11-19T16:06:57.702Z,98922.00
2022-11-19T16:08:32.350Z,98916.00
2022-11-19T16:10:08.182Z,98916.00
2022-11-19T16:11:59.202Z,98917.00
2022-11-19T16:13:49.816Z,98920.00
2022-11-19T16:15:43.745Z,98923.00
2022-11-19T16:17:43.095Z,98917.00
2022-11-19T16:19:18.925Z,98919.00
2022-11-19T16:20:53.801Z,98921.00
2022-11-19T16:22:27.719Z,98918.00
2022-11-19T16:24:20.384Z,98917.00
2022-11-19T16:25:56.057Z,98919.00
2022-11-19T16:27:30.510Z,98927.00
2022-11-19T16:29:04.397Z,98928.00
2022-11-19T16:30:46.611Z,98933.00
2022-11-19T16:32:23.050Z,98926.00
2022-11-19T16:33:56.223Z,98930.00
2022-11-19T16:35:32.784Z,98931.00
2022-11-19T16:37:06.138Z,98924.00
2022-11-19T16:38:44.305Z,98926.00
2022-11-19T16:40:19.418Z,98927.00
2022-11-19T16:42:15.731Z,98922.00
2022-11-19T16:43:51.110Z,98914.00
2022-11-19T16:45:27.884Z,98911.00
2022-11-19T16:47:06.882Z,98913.00
2022-11-19T16:48:58.824Z,98923.00
2022-11-19T16:50:35.558Z,98922.00
2022-11-19T16:52:08.852Z,98924.00
2022-11-19T16:53:48.302Z,98925.00
2022-11-19T16:55:52.178Z,98921.00
2022-11-19T16:57:27.759Z,98919.00
2022-11-19T16:59:05.218Z,98919.00
2022-11-19T17:00:39.093Z,98919.00
2022-11-19T17:02:17.425Z,98918.00
2022-11-19T17:03:51.014Z,98914.00
2022-11-19T17:05:28.541Z,98912.00
2022-11-19T17:07:02.389Z,98913.00
2022-11-19T17:08:38.459Z,98920.00
2022-11-19T17:10:30.589Z,98918.00
2022-11-19T17:12:18.354Z,98923.00
2022-11-19T17:13:51.830Z,98921.00
2022-11-19T17:15:38.809Z,98922.00
2022-11-19T17:17:40.381Z,98917.00
2022-11-19T17:19:26.782Z,98914.00
2022-11-19T17:21:03.047Z,98915.00
2022-11-19T17:22:37.791Z,98924.00
2022-11-19T17:24:14.838Z,98928.00
2022-11-19T17:25:53.207Z,98920.00
2022-11-19T17:27:29.914Z,98922.00
2022-11-19T17:29:12.133Z,98927.00
2022-11-19T17:30:49.078Z,98923.00
2022-11-19T17:32:22.622Z,98928.00
2022-11-19T17:33:58.844Z,98934.00
2022-11-19T17:35:35.064Z,98933.00
2022-11-19T17:37:10.185Z,98930.00
2022-11-19T17:38:43.858Z,98938.00
2022-11-19T17:40:17.153Z,98936.00
2022-11-19T17:42:12.296Z,98939.00
2022-11-19T17:44:03.226Z,98940.00
2022-11-19T17:45:36.497Z,98948.00
2022-11-19T17:47:22.450Z,98941.00
2022-11-19T17:48:56.897Z,98946.00
2022-11-19T17:50:30.121Z,98947.00
2022-11-19T17:52:03.505Z,98944.00
2022-11-19T17:53:36.793Z,98953.00
2022-11-19T17:55:18.623Z,98947.00
2022-11-19T17:56:53.253Z,98953.00
2022-11-19T17:58:26.507Z,98949.00
2022-11-19T17:59:59.691Z,98958.00
2022-11-19T18:01:32.952Z,98954.00
2022-11-19T18:03:06.246Z,98955.00
2022-11-19T18:04:39.583Z,98959.00
2022-11-19T18:06:15.105Z,98962.00
2022-11-19T18:07:48.416Z,98950.00
2022-11-19T18:09:21.719Z,98958.00
2022-11-19T18:10:55.540Z,98957.00
2022-11-19T18:12:30.141Z,98959.00
2022-11-19T18:14:07.441Z,98968.00
2022-11-19T18:15:41.004Z,98977.00
2022-11-19T18:17:16.073Z,98968.00
2022-11-19T18:18:49.838Z,98967.00
2022-11-19T18:20:23.252Z,98960.00
2022-11-19T18:21:57.367Z,98970.00
2022-11-19T18:23:30.535Z,98966.00
2022-11-19T18:25:11.550Z,98965.00
2022-11-19T18:26:45.201Z,98964.00
2022-11-19T18:28:19.994Z,98966.00
2022-11-19T18:29:53.300Z,98955.00
2022-11-19T18:31:29.382Z,98948.00
2022-11-19T18:33:02.710Z,98959.00
2022-11-19T18:34:35.902Z,98949.00
2022-11-19T18:36:10.321Z,98946.00
2022-11-19T18:37:43.605Z,98942.00
2022-11-19T18:39:18.046Z,98955.00
2022-11-19T18:40:51.854Z,98951.00
2022-11-19T18:42:26.290Z,98950.00
2022-11-19T18:44:18.385Z,98954.00
2022-11-19T18:45:51.593Z,98953.00
2022-11-19T18:47:26.240Z,98960.00
2022-11-19T18:48:59.761Z,98954.00
2022-11-19T18:50:33.262Z,98952.00
2022-11-19T18:52:08.857Z,98962.00
2022-11-19T18:53:42.323Z,98970.00
2022-11-19T18:55:15.751Z,98967.00
2022-11-19T18:56:49.080Z,98960.00
2022-11-19T18:58:22.612Z,98967.00
2022-11-19T18:59:59.885Z,98969.00
2022-11-19T19:01:33.478Z,98972.00
2022-11-19T19:03:10.876Z,98967.00
2022-11-19T19:04:48.316Z,98964.00
2022-11-19T19:06:25.440Z,98969.00
2022-11-19T19:07:59.533Z,98974.00
2022-11-19T19:09:32.693Z,98961.00
2022-11-19T19:11:25.953Z,98962.00
2022-11-19T19:12:59.135Z,98963.00
2022-11-19T19:14:32.579Z,98967.00
2022-11-19T19:16:07.621Z,98963.00
2022-11-19T19:17:40.894Z,98968.00
2022-11-19T19:19:16.064Z,98970.00
2022-11-19T19:20:49.357Z,98961.00
2022-11-19T19:22:23.693Z,98959.00
2022-11-19T19:23:57.070Z,98962.00
2022-11-19T19:25:30.379Z,98968.00
2022-11-19T19:27:04.801Z,98968.00
2022-11-19T19:28:40.064Z,98967.00
2022-11-19T19:30:14.289Z,98969.00